Polk Army Air Field
KPOE : now visible

Airfield :











YOU CAN JOIN US ON...

 
LOGIN :

Register | Disclaimer

   EN    FR    IT 

 









Legend :    VFR   Marginal VFR   IFR   Intensive IFR   Very Intensive IFR
Visi :
Ceiling :
>= 8 km
>= 3000ft
5 to 8 km
1000 to 3000 ft
1500m to 5 km
500 to 1000 ft
800 to 1500m
200 to 500 ft
< 800m
< 200 ft
Symbols :   Thunderstorms  Fog  Heavy snow  Heavy precipitations  Wind > 20 kt






- Airport Elevation : 330 ft


KPOE - Polk Army Air Field

CURRENT METAR :
  • 150658Z AUTO 11003KT 10SM OVC011 13/11 A2987 RMK AO2 SLP116 T01310105

EXPIRED METARs :
  • 150643Z AUTO 11003KT 9SM OVC013 13/10 A2987 RMK AO2 SLP116
  • 150558Z AUTO 13005KT 9SM BKN016 OVC022 13/10 A2987 RMK AO2 SLP116 T01260103 10144 20119 402070056 50003
  • 150543Z AUTO 11003KT 10SM BKN020 12/10 A2986 RMK AO2 SLP113
  • 150458Z AUTO 12004KT 9SM CLR 12/10 A2986 RMK AO2 SLP113 T01200103

TAF TAF KPOE
Valid from the 15 at 00:00 until the 16 at 06:00 UTC


150000Z 1500/1606 VRB06KT 9999 FEW025 SCT100 QNH2981INS
BECMG 1505/1506 17006KT 4800 BR BKN015 510202 QNH2987INS
BECMG 1508/1509 18006KT 1600 BR OVC005 510202 QNH2986INS
TEMPO 1509/1513 0800 FG OVC002
BECMG 1516/1517 19015G20KT 9999 NSW BKN015 QNH2982INS
BECMG 1522/1523 19012KT 9999 BKN010 QNH2984INS TX24/1521Z TN11/1511Z



MET'MAP, your aeronautical weather chart ! - Copyright ORBIFLY December 2007 - Disclaimer

ORBIFLY MET'MAP TEAM :

Programming & Development : Alexandra Zaïnal
Concept & original design : Baudouin d'Aumeries
Assistance for programming : Marc-Olivier Méhu
Technical & hardware support : Manuel Goepfert

Contact : metmap@orbifly.com




SOURCES & CREDITS :

   NOAA       Earth
Advisory